createdAt,value
2022-07-26T00:00:12.884Z,6.53
2022-07-26T00:02:47.952Z,7.35
2022-07-26T00:05:16.611Z,6.80
2022-07-26T00:07:43.980Z,8.40
2022-07-26T00:10:11.207Z,6.93
2022-07-26T00:12:38.339Z,6.43
2022-07-26T00:15:07.631Z,7.68
2022-07-26T00:17:34.717Z,7.20
2022-07-26T00:20:01.939Z,7.50
2022-07-26T00:22:34.632Z,6.15
2022-07-26T00:25:07.312Z,6.43
2022-07-26T00:27:37.301Z,6.70
2022-07-26T00:30:09.321Z,5.90
2022-07-26T00:32:37.557Z,6.90
2022-07-26T00:35:05.227Z,6.20
2022-07-26T00:37:32.334Z,6.70
2022-07-26T00:39:59.336Z,6.53
2022-07-26T00:42:26.186Z,7.13
2022-07-26T00:44:53.038Z,5.75
2022-07-26T00:47:19.943Z,5.87
2022-07-26T00:49:46.928Z,5.93
2022-07-26T00:52:13.811Z,5.68
2022-07-26T00:54:45.834Z,5.32
2022-07-26T00:57:14.140Z,6.10
2022-07-26T00:59:42.266Z,6.73
2022-07-26T01:02:10.481Z,7.38
2022-07-26T01:04:37.515Z,8.80
2022-07-26T01:07:15.070Z,8.60
2022-07-26T01:09:42.976Z,8.75
2022-07-26T01:12:10.485Z,7.40
2022-07-26T01:14:37.577Z,6.85
2022-07-26T01:17:04.829Z,7.07
2022-07-26T01:19:31.788Z,6.57
2022-07-26T01:21:59.153Z,7.07
2022-07-26T01:24:26.068Z,7.38
2022-07-26T01:26:53.107Z,8.43
2022-07-26T01:29:19.995Z,7.18
2022-07-26T01:31:46.975Z,7.05
2022-07-26T01:34:13.872Z,6.57
2022-07-26T01:36:40.761Z,6.65
2022-07-26T01:39:07.843Z,7.13
2022-07-26T01:41:37.886Z,6.60
2022-07-26T01:44:07.252Z,5.90
2022-07-26T01:46:35.733Z,6.55
2022-07-26T01:49:03.335Z,7.05
2022-07-26T01:51:30.551Z,8.93
2022-07-26T01:53:57.468Z,7.53
2022-07-26T01:56:24.337Z,7.10
2022-07-26T01:58:51.231Z,7.28
2022-07-26T02:01:39.242Z,8.68
2022-07-26T02:04:05.375Z,6.35
2022-07-26T02:06:32.667Z,7.13
2022-07-26T02:09:01.877Z,6.10
2022-07-26T02:11:29.178Z,5.72
2022-07-26T02:13:56.203Z,7.32
2022-07-26T02:16:23.081Z,7.05
2022-07-26T02:18:49.998Z,8.18
2022-07-26T02:21:16.827Z,7.00
2022-07-26T02:23:43.652Z,7.70
2022-07-26T02:26:10.543Z,7.20
2022-07-26T02:28:37.399Z,8.05
2022-07-26T02:31:04.300Z,7.82
2022-07-26T02:33:31.216Z,7.15
2022-07-26T02:35:58.111Z,6.45
2022-07-26T02:38:25.088Z,5.93
2022-07-26T02:40:52.862Z,6.43
2022-07-26T02:43:20.097Z,6.57
2022-07-26T02:46:02.080Z,6.70
2022-07-26T02:48:32.499Z,7.82
2022-07-26T02:50:59.717Z,7.22
2022-07-26T02:53:26.642Z,6.35
2022-07-26T02:55:53.556Z,7.60
2022-07-26T02:58:21.671Z,7.07
2022-07-26T03:00:48.795Z,7.00
2022-07-26T03:03:16.275Z,6.60
2022-07-26T03:05:43.219Z,7.43
2022-07-26T03:08:10.085Z,7.10
2022-07-26T03:10:37.014Z,7.00
2022-07-26T03:13:03.837Z,7.10
2022-07-26T03:15:30.884Z,7.63
2022-07-26T03:17:57.854Z,6.18
2022-07-26T03:20:24.892Z,6.55
2022-07-26T03:22:51.957Z,7.53
2022-07-26T03:25:18.869Z,7.05
2022-07-26T03:27:45.727Z,7.05
2022-07-26T03:30:13.984Z,8.88
2022-07-26T03:32:41.389Z,8.68
2022-07-26T03:35:08.649Z,7.38
2022-07-26T03:37:46.215Z,7.77
2022-07-26T03:40:16.508Z,7.70
2022-07-26T03:42:44.422Z,7.28
2022-07-26T03:45:12.687Z,8.50
2022-07-26T03:47:39.752Z,7.57
2022-07-26T03:50:08.031Z,7.50
2022-07-26T03:52:35.002Z,7.35
2022-07-26T03:55:21.838Z,8.02
2022-07-26T03:57:49.433Z,6.93
2022-07-26T04:00:16.491Z,6.82
2022-07-26T04:02:43.803Z,7.13
2022-07-26T04:05:11.487Z,6.95
2022-07-26T04:07:52.740Z,6.53
2022-07-26T04:10:21.845Z,6.47
2022-07-26T04:12:52.224Z,6.82
2022-07-26T04:15:21.002Z,6.32
2022-07-26T04:17:51.016Z,5.25
2022-07-26T04:20:18.522Z,6.63
2022-07-26T04:22:45.558Z,6.65
2022-07-26T04:25:13.711Z,6.50
2022-07-26T04:27:40.710Z,7.20
2022-07-26T04:30:13.995Z,7.55
2022-07-26T04:32:42.288Z,6.17
2022-07-26T04:35:09.894Z,6.45
2022-07-26T04:37:41.341Z,6.85
2022-07-26T04:40:09.569Z,6.82
2022-07-26T04:42:37.277Z,7.40
2022-07-26T04:45:08.370Z,7.50
2022-07-26T04:47:35.670Z,6.45
2022-07-26T04:50:04.097Z,7.03
2022-07-26T04:52:31.067Z,7.63
2022-07-26T04:54:59.538Z,6.30
2022-07-26T04:57:26.464Z,7.05
2022-07-26T05:00:10.102Z,8.10
2022-07-26T05:02:41.477Z,6.88
2022-07-26T05:05:09.415Z,8.03
2022-07-26T05:07:47.004Z,8.88
2022-07-26T05:10:15.199Z,6.88
2022-07-26T05:12:42.121Z,8.75
2022-07-26T05:15:13.950Z,7.68
2022-07-26T05:17:43.335Z,9.32
2022-07-26T05:20:12.454Z,8.18
2022-07-26T05:22:39.904Z,8.38
2022-07-26T05:25:07.791Z,8.88
2022-07-26T05:27:35.161Z,8.40
2022-07-26T05:30:02.490Z,7.40
2022-07-26T05:32:29.451Z,8.00
2022-07-26T05:34:56.386Z,8.02
2022-07-26T05:37:23.231Z,8.30
2022-07-26T05:39:50.209Z,7.43
2022-07-26T05:42:17.191Z,8.50
2022-07-26T05:44:44.089Z,9.73
2022-07-26T05:47:11.910Z,7.50
2022-07-26T05:49:39.677Z,7.13
2022-07-26T05:52:07.283Z,7.88
2022-07-26T05:54:37.284Z,7.90
2022-07-26T05:57:04.765Z,8.20
2022-07-26T05:59:32.100Z,9.63
2022-07-26T06:01:59.064Z,8.93
2022-07-26T06:04:27.209Z,7.75
2022-07-26T06:06:55.228Z,10.75
2022-07-26T06:09:27.110Z,8.43
2022-07-26T06:11:54.414Z,7.87
2022-07-26T06:14:21.420Z,8.73
2022-07-26T06:16:48.565Z,10.07
2022-07-26T06:19:15.616Z,9.40
2022-07-26T06:21:42.823Z,9.25
2022-07-26T06:24:10.291Z,8.95
2022-07-26T06:26:37.872Z,6.97
2022-07-26T06:29:04.844Z,7.75
2022-07-26T06:31:31.852Z,7.70
2022-07-26T06:33:58.772Z,7.57
2022-07-26T06:36:30.282Z,9.45
2022-07-26T06:38:57.971Z,8.77
2022-07-26T06:41:25.106Z,8.43
2022-07-26T06:43:52.169Z,7.82
2022-07-26T06:46:21.094Z,9.02
2022-07-26T06:48:52.944Z,8.27
2022-07-26T06:51:20.988Z,7.05
2022-07-26T06:53:48.704Z,8.38
2022-07-26T06:56:17.648Z,7.13
2022-07-26T06:58:44.991Z,8.15
2022-07-26T07:01:12.007Z,9.57
2022-07-26T07:03:39.020Z,9.80
2022-07-26T07:06:06.222Z,8.55
2022-07-26T07:08:33.243Z,9.15
2022-07-26T07:11:00.282Z,9.98
2022-07-26T07:13:28.821Z,7.20
2022-07-26T07:15:55.773Z,7.32
2022-07-26T07:18:22.761Z,7.70
2022-07-26T07:20:49.632Z,7.95
2022-07-26T07:23:16.485Z,8.30
2022-07-26T07:25:44.904Z,6.82
2022-07-26T07:28:12.348Z,5.78
2022-07-26T07:30:39.196Z,5.93
2022-07-26T07:33:09.402Z,7.03
2022-07-26T07:35:50.186Z,7.10
2022-07-26T07:38:17.094Z,7.43
2022-07-26T07:40:44.927Z,5.97
2022-07-26T07:43:11.787Z,6.68
2022-07-26T07:45:38.649Z,5.75
2022-07-26T07:48:05.870Z,5.60
2022-07-26T07:50:33.409Z,7.07
2022-07-26T07:53:01.974Z,7.28
2022-07-26T07:55:40.355Z,6.68
2022-07-26T07:58:08.586Z,7.10
2022-07-26T08:00:35.548Z,7.97
2022-07-26T08:03:04.258Z,7.15
2022-07-26T08:05:31.146Z,7.38
2022-07-26T08:07:58.083Z,8.30
2022-07-26T08:10:24.942Z,7.80
2022-07-26T08:12:51.881Z,5.68
2022-07-26T08:15:19.461Z,5.65
2022-07-26T08:17:51.316Z,6.18
2022-07-26T08:20:23.471Z,7.25
2022-07-26T08:22:50.744Z,8.13
2022-07-26T08:25:17.778Z,7.45
2022-07-26T08:27:51.063Z,7.05
2022-07-26T08:30:27.324Z,7.00
2022-07-26T08:32:54.202Z,6.43
2022-07-26T08:35:22.039Z,6.18
2022-07-26T08:37:49.829Z,6.35
2022-07-26T08:40:16.800Z,5.63
2022-07-26T08:42:52.735Z,6.07
2022-07-26T08:45:28.633Z,6.50
2022-07-26T08:48:16.732Z,5.80
2022-07-26T08:50:44.760Z,7.00
2022-07-26T08:53:13.131Z,5.88
2022-07-26T08:56:05.380Z,6.28
2022-07-26T08:58:27.299Z,6.20
2022-07-26T09:01:05.541Z,5.93
2022-07-26T09:03:32.842Z,5.10
2022-07-26T09:06:16.111Z,5.60
2022-07-26T09:08:44.227Z,6.03
2022-07-26T09:11:32.763Z,5.68
2022-07-26T09:14:02.885Z,5.80
2022-07-26T09:16:37.314Z,5.53
2022-07-26T09:19:22.854Z,5.45
2022-07-26T09:21:50.924Z,6.03
2022-07-26T09:24:42.678Z,5.13
2022-07-26T09:27:12.109Z,5.85
2022-07-26T09:29:51.489Z,6.20
2022-07-26T09:32:21.379Z,5.65
2022-07-26T09:34:58.354Z,5.53
2022-07-26T09:37:36.661Z,5.40
2022-07-26T09:40:13.385Z,5.72
2022-07-26T09:43:01.607Z,5.72
2022-07-26T09:45:30.231Z,5.20
2022-07-26T09:47:57.540Z,5.43
2022-07-26T09:50:26.901Z,5.38
2022-07-26T09:53:12.374Z,5.20
2022-07-26T09:55:45.456Z,6.10
2022-07-26T09:58:17.538Z,5.13
2022-07-26T10:00:44.634Z,4.90
2022-07-26T10:03:12.254Z,5.32
2022-07-26T10:05:40.321Z,5.28
2022-07-26T10:08:07.998Z,5.07
2022-07-26T10:10:47.764Z,5.07
2022-07-26T10:13:14.857Z,5.47
2022-07-26T10:15:44.375Z,5.10
2022-07-26T10:18:39.254Z,6.65
2022-07-26T10:21:27.389Z,5.38
2022-07-26T10:23:59.365Z,5.32
2022-07-26T10:26:32.321Z,5.15
2022-07-26T10:29:17.623Z,4.90
2022-07-26T10:32:00.684Z,4.60
2022-07-26T10:34:39.540Z,3.85
2022-07-26T10:37:08.805Z,4.47
2022-07-26T10:39:38.418Z,3.83
2022-07-26T10:42:10.237Z,3.53
2022-07-26T10:44:41.298Z,3.97
2022-07-26T10:47:08.301Z,3.67
2022-07-26T10:49:37.878Z,3.25
2022-07-26T10:52:31.330Z,3.07
2022-07-26T10:55:01.038Z,2.83
2022-07-26T10:57:34.304Z,2.10
2022-07-26T11:00:02.398Z,2.50
2022-07-26T11:02:35.839Z,2.33
2022-07-26T11:05:15.680Z,2.13
2022-07-26T11:07:56.322Z,1.77
2022-07-26T11:10:35.707Z,1.58
2022-07-26T11:13:13.258Z,1.42
2022-07-26T11:15:42.859Z,1.85
2022-07-26T11:18:22.479Z,2.17
2022-07-26T11:20:53.270Z,1.83
2022-07-26T11:23:25.027Z,2.40
2022-07-26T11:26:18.703Z,1.92
2022-07-26T11:28:46.429Z,2.20
2022-07-26T11:31:13.756Z,2.17
2022-07-26T11:33:45.228Z,2.08
2022-07-26T11:36:12.763Z,2.22
2022-07-26T11:38:54.442Z,2.47
2022-07-26T11:41:34.646Z,2.45
2022-07-26T11:44:03.150Z,2.40
2022-07-26T11:46:39.494Z,2.50
2022-07-26T11:49:17.529Z,2.30
2022-07-26T11:51:55.922Z,2.70
2022-07-26T11:54:25.188Z,2.20
2022-07-26T11:56:54.222Z,2.58
2022-07-26T11:59:23.275Z,3.40
2022-07-26T12:01:50.828Z,2.63
2022-07-26T12:04:23.910Z,2.27
2022-07-26T12:06:52.796Z,2.40
2022-07-26T12:09:49.637Z,2.20
2022-07-26T12:12:35.411Z,3.10
2022-07-26T12:15:05.669Z,3.30
2022-07-26T12:17:35.661Z,3.28
2022-07-26T12:20:18.181Z,3.37
2022-07-26T12:22:56.120Z,3.38
2022-07-26T12:25:27.069Z,3.75
2022-07-26T12:27:54.440Z,3.75
2022-07-26T12:30:21.731Z,3.88
2022-07-26T12:32:51.554Z,3.50
2022-07-26T12:35:32.110Z,3.20
2022-07-26T12:37:59.491Z,2.85
2022-07-26T12:40:39.628Z,3.42
2022-07-26T12:43:06.605Z,3.40
2022-07-26T12:45:36.125Z,3.42
2022-07-26T12:48:10.190Z,3.22
2022-07-26T12:50:38.150Z,2.97
2022-07-26T12:53:07.251Z,3.10
2022-07-26T12:55:35.077Z,2.35
2022-07-26T12:58:02.080Z,2.53
2022-07-26T13:00:30.028Z,3.20
2022-07-26T13:02:57.794Z,2.95
2022-07-26T13:05:24.752Z,2.85
2022-07-26T13:07:52.471Z,2.42
2022-07-26T13:10:33.051Z,2.45
2022-07-26T13:13:00.436Z,2.47
2022-07-26T13:15:36.261Z,2.50
2022-07-26T13:18:05.677Z,2.70
2022-07-26T13:20:32.749Z,2.58
2022-07-26T13:22:59.942Z,2.30
2022-07-26T13:25:28.955Z,2.22
2022-07-26T13:28:05.784Z,1.95
2022-07-26T13:30:32.693Z,2.10
2022-07-26T13:32:59.720Z,2.17
2022-07-26T13:35:26.633Z,2.30
2022-07-26T13:37:53.506Z,2.17
2022-07-26T13:40:20.381Z,2.10
2022-07-26T13:42:49.953Z,2.40
2022-07-26T13:45:16.875Z,2.28
2022-07-26T13:47:43.809Z,2.20
2022-07-26T13:50:11.178Z,1.90
2022-07-26T13:52:38.092Z,1.93
2022-07-26T13:55:06.759Z,1.70
2022-07-26T13:57:47.129Z,2.08
2022-07-26T14:00:20.183Z,1.67
2022-07-26T14:02:47.083Z,2.17
2022-07-26T14:05:14.040Z,1.75
2022-07-26T14:07:42.504Z,1.75
2022-07-26T14:10:09.830Z,1.70
2022-07-26T14:12:38.138Z,1.50
2022-07-26T14:15:11.499Z,1.77
2022-07-26T14:17:41.033Z,1.75
2022-07-26T14:20:08.489Z,1.70
2022-07-26T14:22:35.393Z,1.80
2022-07-26T14:25:02.322Z,2.05
2022-07-26T14:27:29.215Z,1.80
2022-07-26T14:29:56.295Z,1.58
2022-07-26T14:32:23.431Z,1.70
2022-07-26T14:34:51.221Z,1.70
2022-07-26T14:37:44.475Z,2.42
2022-07-26T14:40:07.202Z,2.10
2022-07-26T14:42:34.290Z,1.90
2022-07-26T14:45:01.158Z,1.45
2022-07-26T14:47:28.020Z,1.80
2022-07-26T14:49:54.813Z,1.70
2022-07-26T14:52:22.272Z,1.75
2022-07-26T14:54:49.153Z,2.17
2022-07-26T14:57:15.982Z,1.60
2022-07-26T14:59:42.833Z,1.30
2022-07-26T15:02:12.479Z,1.77
2022-07-26T15:04:39.470Z,1.80
2022-07-26T15:07:06.374Z,1.48
2022-07-26T15:09:33.263Z,1.30
2022-07-26T15:12:00.599Z,1.88
2022-07-26T15:14:27.445Z,1.58
2022-07-26T15:16:54.374Z,1.70
2022-07-26T15:19:25.699Z,1.20
2022-07-26T15:21:54.968Z,1.55
2022-07-26T15:24:23.071Z,1.75
2022-07-26T15:26:51.156Z,1.45
2022-07-26T15:29:18.055Z,1.80
2022-07-26T15:31:46.504Z,1.65
2022-07-26T15:34:13.836Z,1.40
2022-07-26T15:36:41.502Z,1.95
2022-07-26T15:39:17.664Z,1.52
2022-07-26T15:41:46.516Z,2.13
2022-07-26T15:44:15.380Z,1.70
2022-07-26T15:46:45.770Z,1.63
2022-07-26T15:49:15.932Z,1.60
2022-07-26T15:51:43.737Z,1.63
2022-07-26T15:54:13.640Z,1.50
2022-07-26T15:56:41.048Z,1.80
2022-07-26T15:59:08.407Z,1.83
2022-07-26T16:01:36.375Z,2.00
2022-07-26T16:04:05.202Z,1.55
2022-07-26T16:06:33.317Z,1.60
2022-07-26T16:09:18.873Z,1.20
2022-07-26T16:11:47.126Z,1.35
2022-07-26T16:14:14.287Z,1.40
2022-07-26T16:16:41.182Z,1.80
2022-07-26T16:19:08.292Z,1.58
2022-07-26T16:21:35.706Z,1.80
2022-07-26T16:24:06.795Z,1.17
2022-07-26T16:26:34.733Z,1.58
2022-07-26T16:29:01.833Z,1.65
2022-07-26T16:31:28.959Z,1.42
2022-07-26T16:33:56.018Z,1.40
2022-07-26T16:36:22.857Z,1.80
2022-07-26T16:38:49.800Z,1.52
2022-07-26T16:41:16.946Z,1.77
2022-07-26T16:43:43.837Z,1.88
2022-07-26T16:46:10.915Z,1.60
2022-07-26T16:48:37.955Z,1.38
2022-07-26T16:51:05.154Z,1.50
2022-07-26T16:53:32.069Z,1.45
2022-07-26T16:55:58.998Z,1.60
2022-07-26T16:58:25.880Z,1.48
2022-07-26T17:00:52.942Z,1.58
2022-07-26T17:03:19.929Z,1.42
2022-07-26T17:05:47.296Z,1.30
2022-07-26T17:08:16.184Z,1.55
2022-07-26T17:10:43.622Z,1.80
2022-07-26T17:13:10.711Z,1.35
2022-07-26T17:15:37.609Z,1.73
2022-07-26T17:18:04.639Z,1.50
2022-07-26T17:20:31.624Z,1.40
2022-07-26T17:22:58.586Z,1.83
2022-07-26T17:25:25.566Z,1.48
2022-07-26T17:27:53.025Z,1.60
2022-07-26T17:30:19.955Z,1.60
2022-07-26T17:32:46.970Z,1.88
2022-07-26T17:35:14.075Z,2.00
2022-07-26T17:37:40.957Z,1.73
2022-07-26T17:40:08.931Z,1.70
2022-07-26T17:42:37.056Z,1.55
2022-07-26T17:45:07.493Z,1.83
2022-07-26T17:47:34.431Z,2.10
2022-07-26T17:52:52.066Z,1.70
2022-07-26T17:55:19.955Z,1.65
2022-07-26T17:57:48.101Z,1.65
2022-07-26T18:00:16.715Z,1.93
2022-07-26T18:02:43.631Z,1.53
2022-07-26T18:05:11.461Z,1.88
2022-07-26T18:07:39.125Z,1.53
2022-07-26T18:10:06.767Z,1.75
2022-07-26T18:12:33.593Z,1.85
2022-07-26T18:15:00.444Z,1.48
2022-07-26T18:17:27.347Z,1.65
2022-07-26T18:19:54.206Z,1.98
2022-07-26T18:22:21.140Z,1.83
2022-07-26T18:24:47.955Z,1.90
2022-07-26T18:27:14.835Z,2.22
2022-07-26T18:29:41.817Z,2.40
2022-07-26T18:32:08.889Z,1.83
2022-07-26T18:34:36.124Z,1.90
2022-07-26T18:37:03.077Z,2.03
2022-07-26T18:39:33.204Z,2.00
2022-07-26T18:42:00.583Z,2.20
2022-07-26T18:44:27.715Z,2.00
2022-07-26T18:46:56.084Z,3.75
2022-07-26T18:49:23.613Z,3.90
2022-07-26T18:52:00.715Z,2.40
2022-07-26T18:54:33.089Z,2.00
2022-07-26T18:57:00.016Z,2.50
2022-07-26T18:59:28.018Z,2.03
2022-07-26T19:01:54.925Z,2.55
2022-07-26T19:04:22.002Z,2.38
2022-07-26T19:06:49.733Z,2.10
2022-07-26T19:09:16.832Z,2.08
2022-07-26T19:11:45.856Z,2.20
2022-07-26T19:14:13.262Z,2.20
2022-07-26T19:16:40.249Z,1.98
2022-07-26T19:19:07.161Z,1.73
2022-07-26T19:21:34.293Z,2.40
2022-07-26T19:24:01.188Z,2.42
2022-07-26T19:26:29.227Z,2.40
2022-07-26T19:28:56.114Z,1.90
2022-07-26T19:31:22.978Z,3.13
2022-07-26T19:33:50.132Z,3.10
2022-07-26T19:36:26.122Z,2.58
2022-07-26T19:38:54.349Z,2.45
2022-07-26T19:41:21.227Z,2.22
2022-07-26T19:43:48.122Z,2.35
2022-07-26T19:46:15.196Z,2.50
2022-07-26T19:48:42.361Z,2.70
2022-07-26T19:51:09.391Z,2.88
2022-07-26T19:53:36.455Z,2.88
2022-07-26T19:56:04.373Z,2.77
2022-07-26T19:58:31.301Z,2.70
2022-07-26T20:00:58.536Z,2.97
2022-07-26T20:03:25.552Z,2.00
2022-07-26T20:05:53.762Z,2.58
2022-07-26T20:08:21.004Z,2.60
2022-07-26T20:10:47.966Z,2.47
2022-07-26T20:13:15.023Z,2.70
2022-07-26T20:15:42.127Z,2.60
2022-07-26T20:18:10.022Z,2.50
2022-07-26T20:20:37.271Z,1.88
2022-07-26T20:23:07.434Z,2.55
2022-07-26T20:25:34.369Z,2.80
2022-07-26T20:28:01.280Z,2.63
2022-07-26T20:30:29.658Z,2.53
2022-07-26T20:32:56.563Z,2.83
2022-07-26T20:35:23.524Z,2.38
2022-07-26T20:37:50.386Z,3.03
2022-07-26T20:40:17.776Z,3.20
2022-07-26T20:42:50.100Z,3.50
2022-07-26T20:45:17.317Z,2.75
2022-07-26T20:47:44.278Z,3.20
2022-07-26T20:50:12.151Z,3.25
2022-07-26T20:52:39.448Z,3.37
2022-07-26T20:55:07.427Z,3.10
2022-07-26T20:57:34.456Z,2.65
2022-07-26T21:00:01.436Z,2.83
2022-07-26T21:02:28.339Z,2.60
2022-07-26T21:04:55.385Z,2.90
2022-07-26T21:07:22.597Z,3.60
2022-07-26T21:09:49.446Z,4.50
2022-07-26T21:12:16.314Z,4.03
2022-07-26T21:14:43.206Z,3.75
2022-07-26T21:17:12.095Z,3.80
2022-07-26T21:19:40.017Z,3.30
2022-07-26T21:22:07.504Z,3.38
2022-07-26T21:24:37.351Z,2.90
2022-07-26T21:27:05.039Z,3.50
2022-07-26T21:29:38.153Z,3.47
2022-07-26T21:32:06.623Z,3.47
2022-07-26T21:34:34.523Z,2.97
2022-07-26T21:37:03.846Z,3.27
2022-07-26T21:39:31.072Z,3.42
2022-07-26T21:41:58.094Z,3.15
2022-07-26T21:44:25.120Z,3.00
2022-07-26T21:46:54.935Z,3.65
2022-07-26T21:49:22.015Z,2.97
2022-07-26T21:51:49.029Z,2.90
2022-07-26T21:54:16.062Z,3.67
2022-07-26T21:56:43.201Z,2.80
2022-07-26T21:59:10.316Z,3.00
2022-07-26T22:01:37.443Z,2.80
2022-07-26T22:04:06.705Z,2.55
2022-07-26T22:06:33.627Z,2.30
2022-07-26T22:09:00.428Z,2.85
2022-07-26T22:11:27.327Z,2.25
2022-07-26T22:13:54.462Z,2.40
2022-07-26T22:16:21.586Z,2.50
2022-07-26T22:18:48.532Z,2.50
2022-07-26T22:21:15.400Z,2.50
2022-07-26T22:23:42.255Z,3.25
2022-07-26T22:26:09.776Z,2.78
2022-07-26T22:28:38.205Z,2.90
2022-07-26T22:31:05.138Z,3.00
2022-07-26T22:33:32.015Z,2.75
2022-07-26T22:35:58.947Z,2.63
2022-07-26T22:38:25.819Z,2.72
2022-07-26T22:40:52.780Z,2.77
2022-07-26T22:43:19.730Z,2.85
2022-07-26T22:45:46.725Z,2.90
2022-07-26T22:48:13.664Z,2.90
2022-07-26T22:50:40.493Z,3.20
2022-07-26T22:53:07.449Z,2.90
2022-07-26T22:55:34.330Z,3.47
2022-07-26T22:58:01.200Z,3.60
2022-07-26T23:00:28.567Z,3.38
2022-07-26T23:02:55.621Z,3.13
2022-07-26T23:05:22.798Z,3.30
2022-07-26T23:08:01.752Z,3.22
2022-07-26T23:10:30.571Z,3.75
2022-07-26T23:12:57.956Z,3.58
2022-07-26T23:15:24.802Z,3.50
2022-07-26T23:17:51.640Z,3.42
2022-07-26T23:20:18.503Z,3.10
2022-07-26T23:22:45.394Z,2.90
2022-07-26T23:25:12.243Z,3.23
2022-07-26T23:27:39.168Z,3.80
2022-07-26T23:30:06.451Z,3.53
2022-07-26T23:32:33.297Z,3.47
2022-07-26T23:35:00.178Z,3.08
2022-07-26T23:37:26.981Z,2.90
2022-07-26T23:39:53.818Z,2.70
2022-07-26T23:42:20.680Z,2.78
2022-07-26T23:44:47.484Z,2.67
2022-07-26T23:47:14.399Z,3.05
2022-07-26T23:49:41.297Z,2.60
2022-07-26T23:52:08.115Z,3.10
2022-07-26T23:54:34.982Z,2.55
2022-07-26T23:57:01.870Z,2.42
2022-07-26T23:59:28.768Z,2.10
